Map

Track Data

SID SEASON NUMBER BASIN SUBBASIN NAME ISO_TIME NATURE LAT LON WMO_WIND WMO_PRES WMO_AGENCY TRACK_TYPE DIST2LAND LANDFALL IFLAG USA_AGENCY USA_ATCF_ID USA_LAT USA_LON USA_RECORD USA_STATUS USA_WIND USA_PRES USA_SSHS USA_R34_NE USA_R34_SE USA_R34_SW USA_R34_NW USA_R50_NE USA_R50_SE USA_R50_SW USA_R50_NW USA_R64_NE USA_R64_SE USA_R64_SW USA_R64_NW USA_POCI USA_ROCI USA_RMW USA_EYE TOKYO_LAT TOKYO_LON TOKYO_GRADE TOKYO_WIND TOKYO_PRES TOKYO_R50_DIR TOKYO_R50_LONG TOKYO_R50_SHORT TOKYO_R30_DIR TOKYO_R30_LONG TOKYO_R30_SHORT TOKYO_LAND CMA_LAT CMA_LON CMA_CAT CMA_WIND CMA_PRES HKO_LAT HKO_LON HKO_CAT HKO_WIND HKO_PRES NEWDELHI_LAT NEWDELHI_LON NEWDELHI_GRADE NEWDELHI_WIND NEWDELHI_PRES NEWDELHI_CI NEWDELHI_DP NEWDELHI_POCI REUNION_LAT REUNION_LON REUNION_TYPE REUNION_WIND REUNION_PRES REUNION_TNUM REUNION_CI REUNION_RMW REUNION_R34_NE REUNION_R34_SE REUNION_R34_SW REUNION_R34_NW REUNION_R50_NE REUNION_R50_SE REUNION_R50_SW REUNION_R50_NW REUNION_R64_NE REUNION_R64_SE REUNION_R64_SW REUNION_R64_NW BOM_LAT BOM_LON BOM_TYPE BOM_WIND BOM_PRES BOM_TNUM BOM_CI BOM_RMW BOM_R34_NE BOM_R34_SE BOM_R34_SW BOM_R34_NW BOM_R50_NE BOM_R50_SE BOM_R50_SW BOM_R50_NW BOM_R64_NE BOM_R64_SE BOM_R64_SW BOM_R64_NW BOM_ROCI BOM_POCI BOM_EYE BOM_POS_METHOD BOM_PRES_METHOD NADI_LAT NADI_LON NADI_CAT NADI_WIND NADI_PRES WELLINGTON_LAT WELLINGTON_LON WELLINGTON_WIND WELLINGTON_PRES DS824_LAT DS824_LON DS824_STAGE DS824_WIND DS824_PRES TD9636_LAT TD9636_LON TD9636_STAGE TD9636_WIND TD9636_PRES TD9635_LAT TD9635_LON TD9635_WIND TD9635_PRES TD9635_ROCI NEUMANN_LAT NEUMANN_LON NEUMANN_CLASS NEUMANN_WIND NEUMANN_PRES MLC_LAT MLC_LON MLC_CLASS MLC_WIND MLC_PRES USA_GUST BOM_GUST BOM_GUST_PER REUNION_GUST REUNION_GUST_PER USA_SEAHGT USA_SEARAD_NE USA_SEARAD_SE USA_SEARAD_SW USA_SEARAD_NW STORM_SPEED STORM_DIR
1863255N15300 1863 21 NA CS NOT_NAMED 1863-09-11 12:00:00 TS 14.5000 -59.8000 main 445 445 _____________O -1 14.5000 -59.8000 TS 35 12 313
1863255N15300 1863 21 NA CS NOT_NAMED 1863-09-11 15:00:00 TS 14.9002 -60.2497 main 478 476 _____________P -1 14.9002 -60.2497 TS 35 12 313
1863255N15300 1863 21 NA CS NOT_NAMED 1863-09-11 18:00:00 TS 15.3000 -60.7000 main 516 515 _____________O -1 15.3000 -60.7000 TS 35 12 313
1863255N15300 1863 21 NA CS NOT_NAMED 1863-09-11 21:00:00 TS 15.6999 -61.1502 main 545 485 _____________P -1 15.6999 -61.1502 TS 35 12 313
1863255N15300 1863 21 NA CS NOT_NAMED 1863-09-12 00:00:00 TS 16.1000 -61.6000 main 485 426 _____________O -1 16.1000 -61.6000 TS 35 12 313
1863255N15300 1863 21 NA CS NOT_NAMED 1863-09-12 03:00:00 TS 16.4999 -62.0427 main 426 359 _____________P -1 16.4999 -62.0427 TS 35 12 313
1863255N15300 1863 21 NA CS NOT_NAMED 1863-09-12 06:00:00 TS 16.9000 -62.5000 main 359 303 _____________O -1 16.9000 -62.5000 TS 35 12 313
1863255N15300 1863 21 NA CS NOT_NAMED 1863-09-12 09:00:00 TS 17.3147 -62.9702 main 293 229 _____________P -1 17.3147 -62.9702 TS 35 12 310
1863255N15300 1863 21 NA CS NOT_NAMED 1863-09-12 12:00:00 TS 17.7000 -63.5000 main 229 160 _____________O -1 17.7000 -63.5000 TS 35 13 303
1863255N15300 1863 21 NA CS NOT_NAMED 1863-09-12 15:00:00 TS 18.0225 -64.1277 main 160 84 _____________P -1 18.0225 -64.1277 TS 32 14 296
1863255N15300 1863 21 NA CS NOT_NAMED 1863-09-12 18:00:00 TS 18.3000 -64.8000 main 84 23 _____________O -1 18.3000 -64.8000 TD 30 14 293
1863255N15300 1863 21 NA CS NOT_NAMED 1863-09-12 21:00:00 TS 18.5573 -65.4503 main 24 22 _____________P -1 18.5573 -65.4503 TD 30 13 292
1863255N15300 1863 21 NA NA NOT_NAMED 1863-09-13 00:00:00 TS 18.8000 -66.1000 main 44 44 _____________O -1 18.8000 -66.1000 TD 30 13 292
1863255N15300 1863 21 NA NA NOT_NAMED 1863-09-13 03:00:00 TS 19.0498 -66.7502 main 67 67 _____________P -1 19.0498 -66.7502 TD 30 13 292
1863255N15300 1863 21 NA NA NOT_NAMED 1863-09-13 06:00:00 TS 19.3000 -67.4000 main 101 100 _____________O -1 19.3000 -67.4000 TD 30 13 292
1863255N15300 1863 21 NA NA NOT_NAMED 1863-09-13 09:00:00 TS 19.5423 -68.0503 main 94 84 _____________P -1 19.5423 -68.0503 TD 30 13 292
1863255N15300 1863 21 NA NA NOT_NAMED 1863-09-13 12:00:00 TS 19.8000 -68.7000 main 84 74 _____________O -1 19.8000 -68.7000 TD 30 13 295
1863255N15300 1863 21 NA NA NOT_NAMED 1863-09-13 15:00:00 TS 20.0998 -69.3501 main 84 78 _____________P -1 20.0998 -69.3501 TD 30 14 296
1863255N15300 1863 21 NA NA NOT_NAMED 1863-09-13 18:00:00 TS 20.4000 -70.0000 main 88 81 _____________O -1 20.4000 -70.0000 TD 30 13 294
1863255N15300 1863 21 NA NA NOT_NAMED 1863-09-13 21:00:00 TS 20.6498 -70.6504 main 89 89 _____________P -1 20.6498 -70.6504 TD 30 13 292
1863255N15300 1863 21 NA NA NOT_NAMED 1863-09-14 00:00:00 TS 20.9000 -71.3000 main 123 114 _____________O -1 20.9000 -71.3000 TD 30 13 294
1863255N15300 1863 21 NA NA NOT_NAMED 1863-09-14 03:00:00 TS 21.1998 -71.9575 main 103 53 _____________P -1 21.1998 -71.9575 TD 30 14 296
1863255N15300 1863 21 NA NA NOT_NAMED 1863-09-14 06:00:00 TS 21.5000 -72.6000 main 53 44 _____________O -1 21.5000 -72.6000 TD 30 13 295
1863255N15300 1863 21 NA NA NOT_NAMED 1863-09-14 09:00:00 TS 21.7574 -73.2302 main 67 67 _____________P -1 21.7574 -73.2302 TD 32 12 294
1863255N15300 1863 21 NA NA NOT_NAMED 1863-09-14 12:00:00 TS 22.0000 -73.8000 main 101 101 _____________O -1 22.0000 -73.8000 TS 35 11 297
1863255N15300 1863 21 NA NA NOT_NAMED 1863-09-14 15:00:00 TS 22.2497 -74.2728 main 137 137 _____________P -1 22.2497 -74.2728 TS 35 10 301
1863255N15300 1863 21 NA NA NOT_NAMED 1863-09-14 18:00:00 TS 22.5000 -74.7000 main 187 186 _____________O -1 22.5000 -74.7000 TS 35 10 302
1863255N15300 1863 21 NA NA NOT_NAMED 1863-09-14 21:00:00 TS 22.7499 -75.1502 main 194 194 _____________P -1 22.7499 -75.1502 TS 37 10 301
1863255N15300 1863 21 NA NA NOT_NAMED 1863-09-15 00:00:00 TS 23.0000 -75.6000 main 210 202 _____________O -1 23.0000 -75.6000 TS 40 10 301
1863255N15300 1863 21 NA NA NOT_NAMED 1863-09-15 03:00:00 TS 23.2498 -76.0427 main 202 165 _____________P -1 23.2498 -76.0427 TS 40 10 301
1863255N15300 1863 21 NA NA NOT_NAMED 1863-09-15 06:00:00 TS 23.5000 -76.5000 main 165 113 _____________O -1 23.5000 -76.5000 TS 40 10 298
1863255N15300 1863 21 NA NA NOT_NAMED 1863-09-15 09:00:00 TS 23.7277 -77.0301 main 113 52 _____________P -1 23.7277 -77.0301 TS 42 10 299
1863255N15300 1863 21 NA NA NOT_NAMED 1863-09-15 12:00:00 TS 24.0000 -77.5000 main 52 10 _____________O -1 24.0000 -77.5000 TS 45 10 313
1863255N15300 1863 21 NA NA NOT_NAMED 1863-09-15 15:00:00 TS 24.3772 -77.7878 main 10 0 _____________P -1 24.3772 -77.7878 TS 45 9 330
1863255N15300 1863 21 NA NA NOT_NAMED 1863-09-15 18:00:00 TS 24.8000 -78.0000 main 0 0 _____________O -1 24.8000 -78.0000 TS 45 9 334
1863255N15300 1863 21 NA NA NOT_NAMED 1863-09-15 21:00:00 TS 25.1998 -78.2205 main 15 15 _____________P -1 25.1998 -78.2205 TS 47 9 330
1863255N15300 1863 21 NA NA NOT_NAMED 1863-09-16 00:00:00 TS 25.6000 -78.5000 main 68 68 _____________O -1 25.6000 -78.5000 TS 50 10 322
1863255N15300 1863 21 NA NA NOT_NAMED 1863-09-16 03:00:00 TS 26.0001 -78.9200 main 119 69 _____________P -1 26.0001 -78.9200 TS 50 11 315
1863255N15300 1863 21 NA NA NOT_NAMED 1863-09-16 06:00:00 TS 26.4000 -79.4000 main 69 9 _____________O -1 26.4000 -79.4000 TS 50 12 312
1863255N15300 1863 21 NA NA NOT_NAMED 1863-09-16 09:00:00 TS 26.8002 -79.8948 main 9 0 _____________P -1 26.8002 -79.8948 TS 52 11 315
1863255N15300 1863 21 NA NA NOT_NAMED 1863-09-16 12:00:00 TS 27.2000 -80.3000 main 0 0 _____________O -1 27.2000 -80.3000 TS 55 10 326
1863255N15300 1863 21 NA NA NOT_NAMED 1863-09-16 15:00:00 TS 27.5997 -80.4956 main 0 0 _____________P -1 27.5997 -80.4956 TS 55 8 342
1863255N15300 1863 21 NA NA NOT_NAMED 1863-09-16 18:00:00 TS 28.0000 -80.6000 main 0 0 _____________O -1 28.0000 -80.6000 TS 55 8 344
1863255N15300 1863 21 NA NA NOT_NAMED 1863-09-16 21:00:00 TS 28.3850 -80.7502 main 0 0 _____________P -1 28.3850 -80.7502 TS 55 8 342
1863255N15300 1863 21 NA NA NOT_NAMED 1863-09-17 00:00:00 TS 28.8000 -80.9000 main 0 0 _____________O -1 28.8000 -80.9000 TS 55 9 344
1863255N15300 1863 21 NA NA NOT_NAMED 1863-09-17 03:00:00 TS 29.2850 -81.0501 main 0 0 _____________P -1 29.2850 -81.0501 TS 55 10 345
1863255N15300 1863 21 NA NA NOT_NAMED 1863-09-17 06:00:00 TS 29.8000 -81.2000 main 9 9 _____________O -1 29.8000 -81.2000 TS 55 10 346
1863255N15300 1863 21 NA NA NOT_NAMED 1863-09-17 09:00:00 TS 30.2549 -81.3357 main 19 0 _____________P -1 30.2549 -81.3357 TS 55 10 345
1863255N15300 1863 21 NA NA NOT_NAMED 1863-09-17 12:00:00 TS 30.8000 -81.5000 main 0 0 _____________O -1 30.8000 -81.5000 TS 55 14 343
1863255N15300 1863 21 NA NA NOT_NAMED 1863-09-17 15:00:00 TS 31.5851 -81.8226 main 0 0 _____________P -1 31.5851 -81.8226 TS 55 17 345
1863255N15300 1863 21 NA NA NOT_NAMED 1863-09-17 18:00:00 TS 32.4000 -82.0000 main 0 0 _____________O -1 32.4000 -82.0000 TS 55 14 0
1863255N15300 1863 21 NA NA NOT_NAMED 1863-09-17 21:00:00 TS 32.9396 -81.7907 main 0 0 _____________P -1 32.9396 -81.7907 TS 52 13 26
1863255N15300 1863 21 NA NA NOT_NAMED 1863-09-18 00:00:00 TS 33.6000 -81.3000 main 0 0 _____________O -1 33.6000 -81.3000 TS 50 20 27
1863255N15300 1863 21 NA NA NOT_NAMED 1863-09-18 03:00:00 TS 34.7402 -80.6692 main 0 0 _____________P -1 34.7402 -80.6692 TS 47 27 26
1863255N15300 1863 21 NA NA NOT_NAMED 1863-09-18 06:00:00 TS 36.0000 -79.9000 main 0 0 _____________O -1 36.0000 -79.9000 TS 45 26 29
1863255N15300 1863 21 NA NA NOT_NAMED 1863-09-18 09:00:00 TS 37.0301 -79.0911 main 0 0 _____________P -1 37.0301 -79.0911 TS 42 24 33
1863255N15300 1863 21 NA NA NOT_NAMED 1863-09-18 12:00:00 TS 38.0000 -78.3000 main 0 0 _____________O -1 38.0000 -78.3000 TS 40 23 32
1863255N15300 1863 21 NA NA NOT_NAMED 1863-09-18 13:00:00 TS 38.3328 -78.0697 main 0 0 _____________P -1 38.3328 -78.0697 TS 40 23 27
1863255N15300 1863 21 NA NA NOT_NAMED 1863-09-18 15:00:00 TS 38.9990 -77.6391 main 0 0 _____________P -1 38.9990 -77.6391 TS 40 22 26
1863255N15300 1863 21 NA NA NOT_NAMED 1863-09-18 18:00:00 TS 40.0000 -77.0000 main 0 0 _____________O -1 40.0000 -77.0000 TS 40 24 26
1863255N15300 1863 21 NA NA NOT_NAMED 1863-09-18 21:00:00 TS 41.1122 -76.2674 main 0 0 _____________P -1 41.1122 -76.2674 TS 40 23 29
1863255N15300 1863 21 NA NA NOT_NAMED 1863-09-19 00:00:00 ET 42.0000 -75.5000 main 0 0 _____________O -1 42.0000 -75.5000 EX 40 16 43
1863255N15300 1863 21 NA NA NOT_NAMED 1863-09-19 03:00:00 ET 42.3090 -74.7656 main 0 0 _____________P -1 42.3090 -74.7656 EX 40 12 66
1863255N15300 1863 21 NA NA NOT_NAMED 1863-09-19 06:00:00 ET 42.5000 -74.0000 main 0 0 _____________O -1 42.5000 -74.0000 EX 40 13 60
1863255N15300 1863 21 NA NA NOT_NAMED 1863-09-19 09:00:00 ET 42.9856 -73.1849 main 0 0 _____________P -1 42.9856 -73.1849 EX 40 18 48
1863255N15300 1863 21 NA NA NOT_NAMED 1863-09-19 12:00:00 ET 43.7000 -72.2000 main 0 0 _____________O -1 43.7000 -72.2000 EX 40 22 44
1863255N15300 1863 21 NA NA NOT_NAMED 1863-09-19 15:00:00 ET 44.6134 -71.0299 main 0 0 _____________P -1 44.6134 -71.0299 EX 37 28 44
1863255N15300 1863 21 NA NA NOT_NAMED 1863-09-19 18:00:00 ET 45.7000 -69.5000 main 0 0 _____________O -1 45.7000 -69.5000 EX 35 33 48
1863255N15300 1863 21 NA NA NOT_NAMED 1863-09-19 21:00:00 ET 46.8515 -67.5109 main 0 0 _____________P -1 46.8515 -67.5109 EX 35 37 52
1863255N15300 1863 21 NA NA NOT_NAMED 1863-09-20 00:00:00 ET 48.0000 -65.2000 main 0 _____________O -1 48.0000 -65.2000 EX 35 39 53

About IBTrACS Database

This database is a web-friendly format of International Best Track Archive for Climate Stewardship (IBTrACS), a global best track data archive curated by NOAA dating back to 1842.

Updated: 2021-12-06